Time;durP1;ratioP1;P1;durP2;ratioP2;P2;SDS_P1;SDS_P2;PMS_P1;PMS_P2;Temp;Humidity;BMP_temperature;BMP_pressure;BME280_temperature;BME280_humidity;BME280_pressure;Samples;Min_cycle;Max_cycle;Signal;HPM_P1;HPM_P2
2023/12/03 00:01:46;;;;;;;17.63;7.67;;;0.20;99.90;;;;;;5088294;28;20028;-78
2023/12/03 00:04:12;;;;;;;15.83;7.10;;;0.20;99.90;;;;;;5094685;28;20024;-79
2023/12/03 00:06:37;;;;;;;13.77;6.90;;;0.20;99.90;;;;;;5086855;28;20038;-78
2023/12/03 00:09:03;;;;;;;15.27;6.80;;;0.20;99.90;;;;;;5086157;28;20480;-82
2023/12/03 00:11:28;;;;;;;16.90;7.57;;;0.20;99.90;;;;;;5095071;28;20028;-79
2023/12/03 00:13:54;;;;;;;20.23;7.60;;;0.20;99.90;;;;;;5076332;28;20115;-79
2023/12/03 00:16:20;;;;;;;13.67;6.50;;;0.20;99.90;;;;;;5074164;28;20031;-78
2023/12/03 00:18:46;;;;;;;16.80;7.33;;;0.20;99.90;;;;;;5083391;28;20025;-78
2023/12/03 00:21:11;;;;;;;12.63;6.37;;;0.20;99.90;;;;;;5093905;28;20036;-78
2023/12/03 00:23:37;;;;;;;14.77;7.20;;;0.20;99.90;;;;;;5094763;28;20059;-79
2023/12/03 00:26:03;;;;;;;17.33;7.20;;;0.20;99.90;;;;;;5094184;28;20381;-82
2023/12/03 00:28:29;;;;;;;15.70;7.10;;;0.20;99.90;;;;;;5094233;28;20067;-78
2023/12/03 00:30:54;;;;;;;15.57;7.17;;;0.20;99.90;;;;;;5095997;28;20047;-79
2023/12/03 00:33:20;;;;;;;15.87;7.40;;;0.20;99.90;;;;;;5094219;28;20061;-79
2023/12/03 00:35:45;;;;;;;15.73;7.07;;;0.10;99.90;;;;;;5078738;28;20469;-79
2023/12/03 00:38:11;;;;;;;15.77;7.43;;;0.20;99.90;;;;;;5089066;28;20416;-78
2023/12/03 00:40:37;;;;;;;13.90;7.07;;;0.20;99.90;;;;;;5083247;28;20036;-78
2023/12/03 00:43:02;;;;;;;16.47;6.93;;;0.20;99.90;;;;;;5083606;28;20028;-80
2023/12/03 00:45:28;;;;;;;17.93;7.27;;;0.20;99.90;;;;;;5090348;28;20093;-79
2023/12/03 00:47:54;;;;;;;18.20;7.23;;;0.20;99.90;;;;;;5092791;28;20032;-79
2023/12/03 00:50:19;;;;;;;17.70;8.23;;;0.20;99.90;;;;;;5075002;28;20035;-80
2023/12/03 00:52:45;;;;;;;15.73;7.47;;;0.20;99.90;;;;;;5073616;28;20035;-78
2023/12/03 00:55:10;;;;;;;19.13;8.03;;;0.20;99.90;;;;;;5087638;28;20028;-78
2023/12/03 00:57:36;;;;;;;17.57;7.50;;;0.20;99.90;;;;;;5095746;28;20020;-79
2023/12/03 01:00:02;;;;;;;18.17;7.80;;;0.20;99.90;;;;;;5094311;28;20380;-78
2023/12/03 01:02:27;;;;;;;20.90;9.63;;;0.20;99.90;;;;;;5094616;28;20122;-78
2023/12/03 01:04:53;;;;;;;18.13;7.97;;;0.20;99.90;;;;;;5095423;28;20107;-78
2023/12/03 01:07:19;;;;;;;17.13;8.40;;;0.20;99.90;;;;;;5094846;28;20031;-78
2023/12/03 01:09:44;;;;;;;15.87;7.60;;;0.20;99.90;;;;;;5095448;28;20044;-78
2023/12/03 01:12:10;;;;;;;14.70;7.37;;;0.10;99.90;;;;;;5093769;28;20475;-79
2023/12/03 01:14:35;;;;;;;19.63;8.13;;;0.20;99.90;;;;;;5094391;28;20066;-78
2023/12/03 01:17:01;;;;;;;18.33;7.80;;;0.10;99.90;;;;;;5095008;28;20123;-79
2023/12/03 01:19:26;;;;;;;16.93;7.43;;;0.10;99.90;;;;;;5094474;28;20476;-78
2023/12/03 01:21:52;;;;;;;18.77;8.67;;;0.10;99.90;;;;;;5094118;28;20115;-79
2023/12/03 01:24:18;;;;;;;16.43;7.70;;;0.20;99.90;;;;;;5093351;28;20032;-79
2023/12/03 01:26:43;;;;;;;18.17;8.73;;;0.20;99.90;;;;;;5094185;28;20119;-79
2023/12/03 01:29:09;;;;;;;16.70;7.50;;;0.20;99.90;;;;;;5093382;28;20089;-79
2023/12/03 01:31:36;;;;;;;17.47;7.97;;;0.20;99.90;;;;;;5093928;28;20381;-79
2023/12/03 01:34:02;;;;;;;19.50;8.03;;;0.20;99.90;;;;;;5094083;28;20051;-79
2023/12/03 01:36:27;;;;;;;15.23;7.43;;;0.20;99.90;;;;;;5093329;28;20218;-79
2023/12/03 01:38:53;;;;;;;18.73;7.90;;;0.10;99.90;;;;;;5093495;28;20481;-78
2023/12/03 01:41:18;;;;;;;41.20;14.63;;;0.10;99.90;;;;;;5093335;28;20028;-79
2023/12/03 01:43:49;;;;;;;32.07;11.93;;;0.20;99.90;;;;;;5094485;28;20032;-79
2023/12/03 01:46:15;;;;;;;19.53;8.80;;;0.20;99.90;;;;;;5094150;28;20024;-79
2023/12/03 01:48:42;;;;;;;20.17;8.90;;;0.20;99.90;;;;;;5094587;28;20077;-78
2023/12/03 01:51:08;;;;;;;19.77;8.63;;;0.20;99.90;;;;;;5093061;28;20122;-81
2023/12/03 01:53:34;;;;;;;18.83;8.73;;;0.20;99.90;;;;;;5094130;28;20553;-78
2023/12/03 01:55:59;;;;;;;18.43;8.80;;;0.20;99.90;;;;;;5094475;28;20106;-78
2023/12/03 01:58:25;;;;;;;16.87;8.17;;;0.10;99.90;;;;;;5092804;28;20021;-78
2023/12/03 02:00:51;;;;;;;18.37;7.97;;;0.10;99.90;;;;;;5094262;28;20032;-78
2023/12/03 02:03:18;;;;;;;18.47;7.73;;;0.10;99.90;;;;;;5093549;28;20043;-79
2023/12/03 02:05:48;;;;;;;20.90;7.40;;;0.10;99.90;;;;;;5094226;28;20102;-78
2023/12/03 02:08:14;;;;;;;18.77;8.27;;;0.00;99.90;;;;;;5087192;28;20024;-78
2023/12/03 02:10:40;;;;;;;20.93;8.67;;;0.00;99.90;;;;;;5072244;28;20108;-79
2023/12/03 02:13:06;;;;;;;18.80;8.30;;;0.00;99.90;;;;;;5072800;28;20024;-77
2023/12/03 02:15:31;;;;;;;19.40;7.80;;;0.00;99.90;;;;;;5072556;28;20535;-79
2023/12/03 02:17:57;;;;;;;19.83;8.27;;;0.00;99.90;;;;;;5073060;28;20020;-79
2023/12/03 02:20:22;;;;;;;18.13;8.13;;;0.00;99.90;;;;;;5072224;28;20033;-78
2023/12/03 02:22:59;;;;;;;19.53;8.30;;;0.00;99.90;;;;;;5072430;28;20021;-78
2023/12/03 02:25:24;;;;;;;20.77;8.37;;;0.00;99.90;;;;;;5071920;28;20052;-78
2023/12/03 02:27:50;;;;;;;21.37;9.20;;;0.00;99.90;;;;;;5072762;28;20039;-79
2023/12/03 02:30:15;;;;;;;18.23;8.00;;;-0.10;99.90;;;;;;5072046;28;20035;-79
2023/12/03 02:32:41;;;;;;;18.40;8.60;;;0.00;99.90;;;;;;5073125;28;20074;-78
2023/12/03 02:35:07;;;;;;;21.80;9.13;;;0.00;99.90;;;;;;5072450;28;20360;-78
2023/12/03 02:37:32;;;;;;;22.20;8.07;;;0.00;99.90;;;;;;5071974;28;20028;-78
2023/12/03 02:39:58;;;;;;;17.73;8.33;;;0.00;99.90;;;;;;5072087;28;20049;-78
2023/12/03 02:42:25;;;;;;;21.40;8.87;;;0.00;99.90;;;;;;5072171;28;20548;-79
2023/12/03 02:44:50;;;;;;;20.67;9.07;;;-0.10;99.90;;;;;;5073764;28;20111;-78
2023/12/03 02:47:16;;;;;;;20.80;9.00;;;-0.10;99.90;;;;;;5071983;28;20458;-79
2023/12/03 02:49:41;;;;;;;22.97;8.87;;;-0.10;99.90;;;;;;5072572;28;20021;-79
2023/12/03 02:52:09;;;;;;;18.73;7.67;;;-0.10;99.90;;;;;;5072442;28;20089;-79
2023/12/03 02:54:37;;;;;;;17.97;8.47;;;-0.10;99.90;;;;;;5073052;28;20025;-79
2023/12/03 02:57:05;;;;;;;22.83;9.30;;;-0.10;99.90;;;;;;5072492;28;20078;-79
2023/12/03 02:59:31;;;;;;;21.40;9.30;;;-0.20;99.90;;;;;;5071776;28;20201;-79
2023/12/03 03:01:56;;;;;;;23.73;9.37;;;-0.20;99.90;;;;;;5072155;28;20557;-79
2023/12/03 03:04:22;;;;;;;19.70;8.77;;;-0.20;99.90;;;;;;5071539;28;20036;-79
2023/12/03 03:06:47;;;;;;;23.17;9.13;;;-0.20;99.90;;;;;;5072458;28;20123;-79
2023/12/03 03:09:13;;;;;;;24.20;9.23;;;-0.20;99.90;;;;;;5071826;28;20458;-82
2023/12/03 03:11:38;;;;;;;21.27;9.63;;;-0.30;99.90;;;;;;5071988;28;20039;-79
2023/12/03 03:14:04;;;;;;;24.40;9.40;;;-0.30;99.90;;;;;;5072275;28;20056;-79
2023/12/03 03:16:30;;;;;;;22.20;8.73;;;-0.30;99.90;;;;;;5071738;28;20032;-79
2023/12/03 03:18:55;;;;;;;24.07;9.63;;;-0.30;99.90;;;;;;5072285;28;20029;-79
2023/12/03 03:21:21;;;;;;;23.80;10.10;;;-0.30;99.90;;;;;;5072402;28;20039;-79
2023/12/03 03:23:47;;;;;;;23.30;9.83;;;-0.30;99.90;;;;;;5073114;28;20128;-79
2023/12/03 03:26:13;;;;;;;25.17;10.77;;;-0.40;99.90;;;;;;5071946;28;20056;-82
2023/12/03 03:28:38;;;;;;;22.17;9.20;;;-0.40;99.90;;;;;;5071739;28;20025;-79
2023/12/03 03:31:04;;;;;;;22.87;9.70;;;-0.40;99.90;;;;;;5073128;28;20035;-79
2023/12/03 03:33:29;;;;;;;25.00;9.90;;;-0.40;99.90;;;;;;5073442;28;20033;-79
2023/12/03 03:35:55;;;;;;;19.97;9.53;;;-0.40;99.90;;;;;;5076033;28;20465;-79
2023/12/03 03:38:21;;;;;;;20.87;9.43;;;-0.40;99.90;;;;;;5076023;28;20059;-79
2023/12/03 03:40:46;;;;;;;23.27;10.00;;;-0.50;99.90;;;;;;5076230;28;20032;-79
2023/12/03 03:43:12;;;;;;;25.43;9.60;;;-0.50;99.90;;;;;;5076120;28;20028;-79
2023/12/03 03:45:38;;;;;;;24.30;9.80;;;-0.50;99.90;;;;;;5074828;28;20021;-79
2023/12/03 03:48:03;;;;;;;23.83;10.43;;;-0.50;99.90;;;;;;5075544;28;20059;-79
2023/12/03 03:50:29;;;;;;;23.67;9.73;;;-0.50;99.90;;;;;;5075203;28;20043;-79
2023/12/03 03:52:55;;;;;;;22.10;10.03;;;-0.50;99.90;;;;;;5075625;28;20073;-79
2023/12/03 03:55:20;;;;;;;23.87;10.20;;;-0.50;99.90;;;;;;5076064;28;20033;-79
2023/12/03 03:57:46;;;;;;;27.00;9.73;;;-0.50;99.90;;;;;;5076606;28;20021;-79
2023/12/03 04:00:12;;;;;;;19.50;8.00;;;-0.50;99.90;;;;;;5075533;28;20465;-78
2023/12/03 04:02:38;;;;;;;23.23;9.80;;;-0.40;99.90;;;;;;5074722;28;20056;-78
2023/12/03 04:05:04;;;;;;;20.97;9.17;;;-0.40;99.90;;;;;;5075630;28;20025;-78
2023/12/03 04:07:29;;;;;;;21.20;9.43;;;-0.50;99.90;;;;;;5074888;28;20028;-79
2023/12/03 04:09:55;;;;;;;23.90;10.07;;;-0.50;99.90;;;;;;5075226;28;20032;-79
2023/12/03 04:12:21;;;;;;;20.47;8.60;;;-0.50;99.90;;;;;;5074853;28;20363;-79
2023/12/03 04:14:46;;;;;;;18.73;8.60;;;-0.50;99.90;;;;;;5075179;28;20024;-79
2023/12/03 04:17:12;;;;;;;20.87;9.23;;;-0.50;99.90;;;;;;5075111;28;20111;-79
2023/12/03 04:19:38;;;;;;;21.03;9.13;;;-0.50;99.90;;;;;;5074407;28;20097;-79
2023/12/03 04:22:03;;;;;;;24.47;10.37;;;-0.50;99.90;;;;;;5075275;28;20028;-79
2023/12/03 04:24:29;;;;;;;24.10;9.47;;;-0.60;99.90;;;;;;5074503;28;20033;-79
2023/12/03 04:26:54;;;;;;;21.90;9.30;;;-0.60;99.90;;;;;;5075073;28;20032;-79
2023/12/03 04:29:20;;;;;;;22.73;9.57;;;-0.70;99.90;;;;;;5074800;28;20024;-81
2023/12/03 04:31:46;;;;;;;22.37;9.27;;;-0.70;99.90;;;;;;5076142;28;20107;-79
2023/12/03 04:34:12;;;;;;;25.77;9.60;;;-0.70;99.90;;;;;;5075231;28;20025;-79
2023/12/03 04:36:41;;;;;;;24.50;9.83;;;-0.70;99.90;;;;;;5075138;28;20017;-80
2023/12/03 04:39:07;;;;;;;20.20;9.00;;;-0.70;99.90;;;;;;5074111;28;20044;-79
2023/12/03 04:41:37;;;;;;;21.27;8.93;;;-0.70;99.90;;;;;;5074321;28;20036;-80
2023/12/03 04:44:04;;;;;;;18.73;8.70;;;-0.70;99.90;;;;;;5075028;28;20028;-79
2023/12/03 04:46:30;;;;;;;23.50;9.33;;;-0.70;99.90;;;;;;5073210;28;20059;-79
2023/12/03 04:48:55;;;;;;;22.33;9.00;;;-0.70;99.90;;;;;;5074611;28;20028;-79
2023/12/03 04:51:21;;;;;;;23.63;9.33;;;-0.70;99.90;;;;;;5073809;28;20033;-81
2023/12/03 04:53:47;;;;;;;21.97;9.13;;;-0.70;99.90;;;;;;5074408;28;20436;-79
2023/12/03 04:56:12;;;;;;;20.10;9.00;;;-0.70;99.90;;;;;;5074678;28;20024;-79
2023/12/03 04:58:38;;;;;;;21.00;9.03;;;-0.70;99.90;;;;;;5074982;28;20021;-79
2023/12/03 05:01:04;;;;;;;19.40;8.13;;;-0.70;99.90;;;;;;5075404;28;20029;-79
2023/12/03 05:03:29;;;;;;;23.07;9.47;;;-0.70;99.90;;;;;;5073533;28;20058;-79
2023/12/03 05:05:55;;;;;;;21.33;8.63;;;-0.80;99.90;;;;;;5074319;28;20102;-78
2023/12/03 05:08:20;;;;;;;19.50;8.23;;;-0.80;99.90;;;;;;5074607;28;20020;-79
2023/12/03 05:10:46;;;;;;;19.03;8.93;;;-0.80;99.90;;;;;;5073724;28;20040;-79
2023/12/03 05:13:14;;;;;;;20.47;8.97;;;-0.90;99.90;;;;;;5074368;28;20031;-78
2023/12/03 05:15:40;;;;;;;22.50;9.00;;;-0.90;99.90;;;;;;5073425;28;20473;-79
2023/12/03 05:18:05;;;;;;;22.73;9.00;;;-0.90;99.90;;;;;;5075009;28;20021;-78
2023/12/03 05:20:32;;;;;;;22.53;9.43;;;-1.00;99.90;;;;;;5073426;28;20078;-79
2023/12/03 05:22:57;;;;;;;23.27;10.07;;;-1.00;99.90;;;;;;5074824;28;20111;-78
2023/12/03 05:25:23;;;;;;;21.63;8.50;;;-1.00;99.90;;;;;;5073199;28;20052;-80
2023/12/03 05:27:49;;;;;;;22.23;8.70;;;-1.00;99.90;;;;;;5073749;28;20031;-78
2023/12/03 05:30:15;;;;;;;21.10;9.20;;;-1.00;99.90;;;;;;5074917;28;20461;-78
2023/12/03 05:32:43;;;;;;;18.73;8.57;;;-1.10;99.90;;;;;;5073057;28;20025;-78
2023/12/03 05:35:10;;;;;;;20.27;8.37;;;-1.10;99.90;;;;;;5074571;28;20433;-78
2023/12/03 05:37:36;;;;;;;19.53;8.87;;;-1.10;99.90;;;;;;5072882;28;20111;-79
2023/12/03 05:40:04;;;;;;;22.07;8.90;;;-1.10;99.90;;;;;;5073831;28;20076;-78
2023/12/03 05:42:30;;;;;;;19.73;8.63;;;-1.20;99.90;;;;;;5072836;28;20083;-79
2023/12/03 05:44:55;;;;;;;18.57;9.07;;;-1.20;99.90;;;;;;5073699;28;20032;-79
2023/12/03 05:47:21;;;;;;;25.37;8.80;;;-1.20;99.90;;;;;;5074119;28;20031;-81
2023/12/03 05:49:47;;;;;;;21.83;9.00;;;-1.20;99.90;;;;;;5074126;28;20027;-78
2023/12/03 05:52:14;;;;;;;19.37;8.97;;;-1.10;99.90;;;;;;5074587;28;20156;-79
2023/12/03 05:54:42;;;;;;;21.23;8.63;;;-1.20;99.90;;;;;;5073051;28;20029;-79
2023/12/03 05:57:08;;;;;;;23.80;9.13;;;-1.20;99.90;;;;;;5072338;28;20030;-79
2023/12/03 05:59:33;;;;;;;21.27;9.33;;;-1.20;99.90;;;;;;5072332;28;20088;-80
2023/12/03 06:01:59;;;;;;;19.27;9.03;;;-1.20;99.90;;;;;;5073480;28;20028;-79
2023/12/03 06:04:24;;;;;;;20.20;8.40;;;-1.20;99.90;;;;;;5071952;28;20035;-82
2023/12/03 06:06:50;;;;;;;22.80;9.73;;;-1.20;99.90;;;;;;5072451;28;20115;-79
2023/12/03 06:09:15;;;;;;;20.10;7.83;;;-1.20;99.90;;;;;;5072766;28;20416;-79
2023/12/03 06:11:41;;;;;;;19.37;8.53;;;-1.20;99.90;;;;;;5071768;28;20028;-79
2023/12/03 06:14:07;;;;;;;21.10;8.47;;;-1.30;99.90;;;;;;5072275;28;20021;-78
2023/12/03 06:16:32;;;;;;;25.30;8.60;;;-1.30;99.90;;;;;;5071917;28;20111;-78
2023/12/03 06:18:58;;;;;;;20.27;8.80;;;-1.30;99.90;;;;;;5072199;28;20064;-78
2023/12/03 06:21:24;;;;;;;19.83;8.20;;;-1.30;99.90;;;;;;5072257;28;20123;-80
2023/12/03 06:23:49;;;;;;;19.17;8.17;;;-1.40;99.90;;;;;;5071948;28;20496;-79
2023/12/03 06:26:15;;;;;;;20.17;8.70;;;-1.30;99.90;;;;;;5072349;28;20024;-78
2023/12/03 06:28:41;;;;;;;19.50;8.77;;;-1.30;99.90;;;;;;5071756;28;20498;-78
2023/12/03 06:31:06;;;;;;;17.77;8.27;;;-1.30;99.90;;;;;;5072612;28;20032;-78
2023/12/03 06:33:33;;;;;;;17.57;7.87;;;-1.40;99.90;;;;;;5071243;28;20020;-78
2023/12/03 06:35:58;;;;;;;20.67;8.27;;;-1.40;99.90;;;;;;5073322;28;20024;-78
2023/12/03 06:38:24;;;;;;;19.33;7.93;;;-1.40;99.90;;;;;;5071409;28;20473;-81
2023/12/03 06:40:50;;;;;;;16.93;7.23;;;-1.30;99.90;;;;;;5071589;28;20032;-78
2023/12/03 06:43:15;;;;;;;18.83;7.10;;;-1.40;99.90;;;;;;5072015;28;20119;-78
2023/12/03 06:45:41;;;;;;;18.03;7.63;;;-1.40;99.90;;;;;;5071117;28;20036;-78
2023/12/03 06:48:07;;;;;;;17.97;8.03;;;-1.40;99.90;;;;;;5072613;28;20039;-78
2023/12/03 06:50:33;;;;;;;17.07;8.20;;;-1.40;99.90;;;;;;5071297;28;20033;-78
2023/12/03 06:53:00;;;;;;;18.37;7.80;;;-1.40;99.90;;;;;;5071762;28;20031;-78
2023/12/03 06:55:26;;;;;;;19.57;8.00;;;-1.40;99.90;;;;;;5071723;28;20055;-80
2023/12/03 06:57:51;;;;;;;19.57;7.60;;;-1.40;99.90;;;;;;5071621;28;20032;-78
2023/12/03 07:00:17;;;;;;;20.33;7.93;;;-1.40;99.90;;;;;;5071532;28;20366;-78
2023/12/03 07:02:43;;;;;;;19.13;7.73;;;-1.40;99.90;;;;;;5071271;28;20123;-78
2023/12/03 07:05:08;;;;;;;22.17;8.53;;;-1.40;99.90;;;;;;5071909;28;20025;-78
2023/12/03 07:07:34;;;;;;;16.47;8.33;;;-1.40;99.90;;;;;;5072374;28;20028;-79
2023/12/03 07:10:00;;;;;;;18.97;8.03;;;-1.50;99.90;;;;;;5075822;28;20029;-77
2023/12/03 07:12:25;;;;;;;18.67;8.13;;;-1.40;99.90;;;;;;5075487;28;20033;-79
2023/12/03 07:14:51;;;;;;;17.37;7.57;;;-1.50;99.90;;;;;;5075414;28;20088;-77
2023/12/03 07:17:16;;;;;;;16.57;8.10;;;-1.50;99.90;;;;;;5076079;28;20024;-78
2023/12/03 07:19:46;;;;;;;20.00;8.10;;;-1.50;99.90;;;;;;5075180;28;20052;-78
2023/12/03 07:22:12;;;;;;;16.63;7.17;;;-1.50;99.90;;;;;;5075856;28;20366;-79
2023/12/03 07:24:39;;;;;;;16.50;7.60;;;-1.50;99.90;;;;;;5076329;28;20090;-79
2023/12/03 07:27:05;;;;;;;18.83;7.97;;;-1.50;99.90;;;;;;5075806;28;20028;-79
2023/12/03 07:29:31;;;;;;;17.73;7.67;;;-1.50;99.90;;;;;;5075244;28;20130;-80
2023/12/03 07:31:57;;;;;;;18.30;7.73;;;-1.50;99.90;;;;;;5075748;28;20063;-79
2023/12/03 07:34:22;;;;;;;20.10;8.20;;;-1.50;99.90;;;;;;5075662;28;20116;-78
2023/12/03 07:36:48;;;;;;;17.93;8.37;;;-1.50;99.90;;;;;;5074796;28;20028;-78
2023/12/03 07:39:13;;;;;;;16.63;8.00;;;-1.50;99.90;;;;;;5075025;28;20053;-78
2023/12/03 07:41:39;;;;;;;19.03;7.70;;;-1.50;99.90;;;;;;5075815;28;20035;-78
2023/12/03 07:44:05;;;;;;;17.53;7.80;;;-1.40;99.90;;;;;;5075326;28;20028;-78
2023/12/03 07:46:32;;;;;;;17.27;7.53;;;-1.40;99.90;;;;;;5074971;28;20123;-78
2023/12/03 07:48:58;;;;;;;18.57;7.50;;;-1.50;99.90;;;;;;5075496;28;20465;-78
2023/12/03 07:51:24;;;;;;;18.10;8.47;;;-1.40;99.90;;;;;;5075256;28;20024;-78
2023/12/03 07:53:49;;;;;;;23.63;8.83;;;-1.40;99.90;;;;;;5074700;28;20537;-78
2023/12/03 07:56:15;;;;;;;18.50;8.00;;;-1.40;99.90;;;;;;5075077;28;20024;-78
2023/12/03 07:58:40;;;;;;;20.80;8.67;;;-1.50;99.90;;;;;;5075941;28;20078;-77
2023/12/03 08:01:06;;;;;;;17.33;7.50;;;-1.50;99.90;;;;;;5075339;28;20459;-78
2023/12/03 08:03:32;;;;;;;18.77;7.80;;;-1.50;99.90;;;;;;5075713;28;20029;-80
2023/12/03 08:05:58;;;;;;;18.47;8.30;;;-1.40;99.90;;;;;;5075093;28;20093;-78
2023/12/03 08:08:24;;;;;;;19.67;7.97;;;-1.40;99.90;;;;;;5075987;28;20424;-78
2023/12/03 08:10:49;;;;;;;21.53;8.93;;;-1.40;99.90;;;;;;5074253;28;20052;-78
2023/12/03 08:13:15;;;;;;;19.70;8.80;;;-1.40;99.90;;;;;;5075042;28;20024;-78
2023/12/03 08:15:41;;;;;;;18.80;8.20;;;-1.40;99.90;;;;;;5075120;28;20369;-78
2023/12/03 08:18:06;;;;;;;20.93;8.20;;;-1.30;99.90;;;;;;5074612;28;20074;-78
2023/12/03 08:20:32;;;;;;;16.33;7.30;;;-1.50;99.90;;;;;;5073244;28;20025;-80
2023/12/03 08:22:57;;;;;;;19.20;8.00;;;-1.40;99.90;;;;;;5075640;28;20051;-78
2023/12/03 08:25:23;;;;;;;18.83;8.27;;;-1.30;99.90;;;;;;5075535;28;20029;-78
2023/12/03 08:27:50;;;;;;;19.77;8.53;;;-1.30;99.90;;;;;;5074022;28;20409;-78
2023/12/03 08:30:17;;;;;;;19.00;8.20;;;-1.30;99.90;;;;;;5075608;28;20477;-77
2023/12/03 08:32:43;;;;;;;22.83;9.67;;;-1.30;99.90;;;;;;5073958;28;20032;-77
2023/12/03 08:35:08;;;;;;;16.30;8.03;;;-1.30;99.90;;;;;;5074837;28;20091;-78
2023/12/03 08:37:34;;;;;;;18.43;8.10;;;-1.20;99.90;;;;;;5076960;28;20427;-79
2023/12/03 08:40:00;;;;;;;18.63;8.23;;;-1.10;99.90;;;;;;5094855;28;20059;-76
2023/12/03 08:42:25;;;;;;;16.90;7.97;;;-1.10;99.90;;;;;;5093641;28;20487;-76
2023/12/03 08:44:51;;;;;;;19.57;7.63;;;-1.10;99.90;;;;;;5093927;28;20024;-77
2023/12/03 08:47:17;;;;;;;17.27;8.07;;;-1.00;99.90;;;;;;5094372;28;20107;-77
2023/12/03 08:49:42;;;;;;;20.57;8.77;;;-1.00;99.90;;;;;;5093846;28;20035;-78
2023/12/03 08:52:08;;;;;;;22.20;8.57;;;-0.90;99.90;;;;;;5094562;28;20035;-79
2023/12/03 08:54:34;;;;;;;17.07;8.10;;;-0.90;99.90;;;;;;5094098;28;20031;-80
2023/12/03 08:57:00;;;;;;;17.50;7.33;;;-0.90;99.90;;;;;;5094831;28;20380;-78
2023/12/03 08:59:26;;;;;;;16.77;7.87;;;-0.90;99.90;;;;;;5095682;28;20093;-78
2023/12/03 09:01:51;;;;;;;17.93;7.97;;;-0.80;99.90;;;;;;5095337;28;20028;-78
2023/12/03 09:04:18;;;;;;;22.23;9.17;;;-0.80;99.90;;;;;;5094713;28;20024;-78
2023/12/03 09:06:44;;;;;;;18.37;8.63;;;-0.80;99.90;;;;;;5093936;28;20028;-78
2023/12/03 09:09:10;;;;;;;17.53;8.67;;;-0.80;99.90;;;;;;5093911;28;20119;-78
2023/12/03 09:11:36;;;;;;;18.37;8.33;;;-0.70;99.90;;;;;;5093672;28;20059;-79
2023/12/03 09:14:02;;;;;;;17.83;8.10;;;-0.70;99.90;;;;;;5095059;28;20020;-78
2023/12/03 09:16:28;;;;;;;22.20;8.90;;;-0.70;99.90;;;;;;5093841;28;20028;-79
2023/12/03 09:18:54;;;;;;;21.73;8.97;;;-0.60;99.90;;;;;;5093101;28;20570;-77
2023/12/03 09:21:20;;;;;;;17.33;8.23;;;-0.60;99.90;;;;;;5094056;28;20448;-78
2023/12/03 09:23:47;;;;;;;19.27;8.37;;;-0.60;99.90;;;;;;5093312;28;20032;-78
2023/12/03 09:26:12;;;;;;;19.17;8.43;;;-0.50;99.90;;;;;;5088751;28;20472;-79
2023/12/03 09:28:38;;;;;;;19.33;8.70;;;-0.50;99.90;;;;;;5092550;28;20028;-79
2023/12/03 09:31:03;;;;;;;16.77;7.37;;;-0.50;99.90;;;;;;5092850;28;20024;-78
2023/12/03 09:33:29;;;;;;;19.60;8.57;;;-0.50;99.90;;;;;;5093201;28;20077;-78
2023/12/03 09:35:56;;;;;;;20.87;7.87;;;-0.50;99.90;;;;;;5092473;28;20126;-77
2023/12/03 09:38:22;;;;;;;21.33;8.80;;;-0.50;99.90;;;;;;5088879;28;20028;-79
2023/12/03 09:40:49;;;;;;;19.13;8.17;;;-0.40;99.90;;;;;;5083266;28;20056;-78
2023/12/03 09:43:20;;;;;;;20.30;8.13;;;-0.40;99.90;;;;;;5083475;28;20063;-78
2023/12/03 09:45:49;;;;;;;17.43;8.30;;;-0.40;99.90;;;;;;5083355;28;20032;-77
2023/12/03 09:48:19;;;;;;;20.10;8.70;;;-0.30;99.90;;;;;;5081419;28;20025;-78
2023/12/03 09:50:45;;;;;;;19.43;8.53;;;-0.30;99.90;;;;;;5083685;28;20028;-79
2023/12/03 09:53:12;;;;;;;19.10;8.40;;;-0.20;99.90;;;;;;5091543;28;20031;-78
2023/12/03 09:55:40;;;;;;;16.87;7.90;;;-0.20;99.90;;;;;;5080754;28;20024;-79
2023/12/03 09:58:10;;;;;;;19.67;8.53;;;-0.20;99.90;;;;;;5080657;28;20059;-78
2023/12/03 10:00:39;;;;;;;16.80;8.23;;;-0.20;99.90;;;;;;5085324;28;20035;-80
2023/12/03 10:03:05;;;;;;;18.30;8.13;;;-0.10;99.90;;;;;;5083581;28;20032;-80
2023/12/03 10:05:32;;;;;;;19.13;8.40;;;-0.10;99.90;;;;;;5081935;28;20039;-79
2023/12/03 10:07:58;;;;;;;17.70;8.17;;;0.00;99.90;;;;;;5080000;28;20020;-78
2023/12/03 10:10:29;;;;;;;18.33;7.80;;;0.00;99.90;;;;;;5082699;28;20082;-78
2023/12/03 10:12:55;;;;;;;19.07;7.80;;;0.00;99.90;;;;;;5081871;28;20029;-78
2023/12/03 10:15:21;;;;;;;20.70;8.87;;;0.10;99.90;;;;;;5083315;28;20028;-78
2023/12/03 10:17:49;;;;;;;18.03;7.97;;;0.10;99.90;;;;;;5081351;28;20029;-79
2023/12/03 10:20:26;;;;;;;19.37;8.33;;;0.10;99.90;;;;;;5086225;28;20109;-77
2023/12/03 10:22:57;;;;;;;16.47;7.33;;;0.10;99.90;;;;;;5083356;28;20146;-79
2023/12/03 10:25:31;;;;;;;17.87;8.20;;;0.20;99.90;;;;;;5081859;28;20060;-78
2023/12/03 10:27:58;;;;;;;18.37;8.13;;;0.20;99.90;;;;;;5085175;28;20029;-78
2023/12/03 10:30:24;;;;;;;18.10;7.30;;;0.30;99.90;;;;;;5081277;28;20030;-78
2023/12/03 10:32:50;;;;;;;17.23;7.70;;;0.30;99.90;;;;;;5082596;28;20020;-79
2023/12/03 10:35:17;;;;;;;21.27;8.23;;;0.30;99.90;;;;;;5083572;28;20029;-79
2023/12/03 10:37:43;;;;;;;19.47;7.30;;;0.30;99.90;;;;;;5081331;28;20115;-78
2023/12/03 10:40:10;;;;;;;21.20;8.43;;;0.40;99.90;;;;;;5083903;28;20127;-78
2023/12/03 10:42:37;;;;;;;19.33;8.50;;;0.40;99.90;;;;;;5106836;28;20035;-81
2023/12/03 10:45:15;;;;;;;18.97;9.03;;;0.40;99.90;;;;;;5089537;28;20519;-82
2023/12/03 10:47:42;;;;;;;19.07;7.73;;;0.40;99.90;;;;;;5088078;28;20061;-80
2023/12/03 10:50:09;;;;;;;16.57;7.50;;;0.40;99.90;;;;;;5083276;28;20066;-81
2023/12/03 10:52:38;;;;;;;18.13;8.60;;;0.40;99.90;;;;;;5081673;28;20028;-81
2023/12/03 10:55:06;;;;;;;17.90;8.03;;;0.40;99.90;;;;;;5080300;28;20032;-81
2023/12/03 10:57:33;;;;;;;17.57;8.00;;;0.50;99.90;;;;;;5081789;28;20079;-81
2023/12/03 11:00:09;;;;;;;21.80;8.33;;;0.40;99.90;;;;;;5085028;28;20024;-80
2023/12/03 11:02:45;;;;;;;19.50;7.80;;;0.50;99.90;;;;;;5085688;28;20130;-80
2023/12/03 11:05:32;;;;;;;18.47;8.67;;;0.50;99.90;;;;;;5106671;28;20115;-81
2023/12/03 11:08:01;;;;;;;21.10;8.67;;;0.50;99.90;;;;;;5081491;28;20110;-80
2023/12/03 11:10:27;;;;;;;19.33;8.43;;;0.60;99.90;;;;;;5082026;28;20040;-80
2023/12/03 11:12:53;;;;;;;18.87;8.47;;;0.60;99.90;;;;;;5084337;28;20024;-80
2023/12/03 11:15:20;;;;;;;17.10;7.67;;;0.60;99.90;;;;;;5082884;28;20025;-80
2023/12/03 11:17:47;;;;;;;19.13;8.43;;;0.70;99.90;;;;;;5081402;28;20024;-81
2023/12/03 11:20:18;;;;;;;18.97;8.80;;;0.80;99.90;;;;;;5081369;28;20479;-81
2023/12/03 11:23:20;;;;;;;18.63;8.53;;;0.80;99.90;;;;;;5106086;28;20131;-81
2023/12/03 11:25:55;;;;;;;17.25;7.88;;;0.90;99.90;;;;;;5081107;28;20529;-81
2023/12/03 11:28:22;;;;;;;19.00;8.00;;;0.90;99.90;;;;;;5086996;28;20028;-81
2023/12/03 11:30:48;;;;;;;19.43;8.10;;;0.90;99.90;;;;;;5080985;28;20273;-80
2023/12/03 11:33:14;;;;;;;17.77;8.13;;;0.80;99.90;;;;;;5079111;28;20071;-80
2023/12/03 11:35:42;;;;;;;17.47;7.97;;;0.90;99.90;;;;;;5081790;28;20029;-80
2023/12/03 11:38:21;;;;;;;20.20;8.50;;;0.90;99.90;;;;;;5080181;28;20466;-80
2023/12/03 11:40:47;;;;;;;18.63;8.13;;;1.00;99.90;;;;;;5085598;28;20549;-80
2023/12/03 11:43:26;;;;;;;17.53;7.70;;;1.10;99.90;;;;;;5082143;28;20089;-80
2023/12/03 11:45:52;;;;;;;21.00;9.30;;;1.10;99.90;;;;;;5083479;28;20021;-81
2023/12/03 11:48:19;;;;;;;19.53;9.23;;;1.10;99.90;;;;;;5081400;28;20024;-80
2023/12/03 11:50:46;;;;;;;19.73;7.97;;;1.20;99.90;;;;;;5081817;28;20025;-81
2023/12/03 11:53:16;;;;;;;15.13;7.27;;;1.20;99.90;;;;;;5081444;28;20097;-80
2023/12/03 11:55:47;;;;;;;15.00;7.63;;;1.30;99.90;;;;;;5083709;28;20440;-81
2023/12/03 11:58:14;;;;;;;16.37;7.77;;;1.40;99.90;;;;;;5090875;28;20028;-80
2023/12/03 12:00:40;;;;;;;16.73;8.53;;;1.50;99.90;;;;;;5088923;28;20103;-82
2023/12/03 12:03:07;;;;;;;19.40;8.50;;;1.60;99.90;;;;;;5090540;28;20025;-82
2023/12/03 12:05:41;;;;;;;19.07;8.67;;;1.60;99.90;;;;;;5089876;28;20090;-82
2023/12/03 12:08:06;;;;;;;16.57;7.33;;;1.60;99.90;;;;;;5090411;28;20024;-82
2023/12/03 12:10:33;;;;;;;20.77;8.07;;;1.60;99.90;;;;;;5091906;28;20031;-82
2023/12/03 12:13:01;;;;;;;20.27;8.63;;;1.60;99.90;;;;;;5090205;28;20024;-82
2023/12/03 12:15:26;;;;;;;15.63;7.23;;;1.70;99.90;;;;;;5086021;28;20028;-82
2023/12/03 12:17:52;;;;;;;13.97;6.87;;;1.80;99.90;;;;;;5087636;28;20035;-82
2023/12/03 12:20:25;;;;;;;13.73;6.33;;;1.80;99.90;;;;;;5085754;28;20485;-82
2023/12/03 12:22:51;;;;;;;13.30;5.83;;;1.90;99.90;;;;;;5108903;28;20036;-80
2023/12/03 12:25:17;;;;;;;14.33;6.13;;;2.00;99.90;;;;;;5090596;28;20052;-79
2023/12/03 12:27:44;;;;;;;44.73;8.73;;;2.10;99.90;;;;;;5093998;28;20027;-83
2023/12/03 12:30:12;;;;;;;14.90;6.20;;;2.20;99.90;;;;;;5093005;28;20039;-81
2023/12/03 12:32:39;;;;;;;15.50;6.70;;;2.20;99.90;;;;;;5092751;28;20031;-80
2023/12/03 12:35:05;;;;;;;14.20;6.20;;;2.30;99.90;;;;;;5093210;28;20027;-82
2023/12/03 12:37:31;;;;;;;15.70;7.27;;;2.30;99.90;;;;;;5093212;28;20015;-81